createdAt,value
2023-10-06T00:01:22.073Z,5.43
2023-10-06T00:10:30.943Z,5.78
2023-10-06T00:13:01.667Z,5.45
2023-10-06T00:29:41.909Z,5.78
2023-10-06T00:35:36.813Z,5.70
2023-10-06T00:38:39.995Z,5.80
2023-10-06T00:41:18.311Z,5.47
2023-10-06T00:47:01.115Z,6.03
2023-10-06T00:52:16.922Z,5.53
2023-10-06T00:54:52.005Z,5.55
2023-10-06T01:00:09.053Z,5.63
2023-10-06T01:02:39.673Z,5.57
2023-10-06T01:08:14.243Z,5.85
2023-10-06T01:10:51.115Z,5.90
2023-10-06T01:13:30.207Z,5.45
2023-10-06T01:16:00.453Z,6.15
2023-10-06T01:18:42.141Z,6.03
2023-10-06T01:21:32.023Z,5.90
2023-10-06T01:24:24.262Z,5.90
2023-10-06T01:27:10.267Z,6.32
2023-10-06T01:35:15.437Z,6.78
2023-10-06T01:37:58.985Z,6.68
2023-10-06T01:40:35.979Z,6.47
2023-10-06T01:46:13.118Z,7.18
2023-10-06T01:48:46.938Z,6.47
2023-10-06T01:56:52.064Z,7.40
2023-10-06T01:59:23.304Z,6.88
2023-10-06T02:04:47.407Z,6.97
2023-10-06T02:10:24.129Z,7.28
2023-10-06T02:15:41.968Z,7.47
2023-10-06T02:18:21.160Z,7.18
2023-10-06T02:21:04.047Z,7.63
2023-10-06T02:27:12.084Z,7.78
2023-10-06T02:29:57.846Z,6.82
2023-10-06T02:36:07.972Z,7.53
2023-10-06T02:38:58.624Z,7.93
2023-10-06T02:41:35.892Z,7.68
2023-10-06T02:44:11.904Z,7.05
2023-10-06T02:53:02.105Z,7.03
2023-10-06T02:55:35.300Z,7.32
2023-10-06T02:58:17.808Z,6.97
2023-10-06T03:01:00.763Z,6.93
2023-10-06T03:03:45.834Z,6.85
2023-10-06T03:06:24.987Z,7.28
2023-10-06T03:17:32.384Z,6.80
2023-10-06T03:20:33.464Z,6.40
2023-10-06T03:23:48.827Z,6.97
2023-10-06T03:26:41.013Z,6.82
2023-10-06T03:29:37.991Z,6.15
2023-10-06T03:32:13.534Z,5.75
2023-10-06T03:34:48.173Z,5.82
2023-10-06T03:37:37.274Z,5.95
2023-10-06T03:40:31.918Z,5.40
2023-10-06T03:43:07.684Z,5.30
2023-10-06T03:45:48.323Z,5.63
2023-10-06T03:48:28.131Z,6.07
2023-10-06T03:51:03.465Z,6.00
2023-10-06T03:53:36.412Z,6.20
2023-10-06T03:56:28.000Z,6.22
2023-10-06T03:59:14.726Z,5.90
2023-10-06T04:01:52.197Z,6.63
2023-10-06T04:04:25.596Z,5.50
2023-10-06T04:07:05.007Z,5.93
2023-10-06T04:09:33.374Z,5.50
2023-10-06T04:12:14.689Z,6.43
2023-10-06T04:14:48.203Z,5.78
2023-10-06T04:17:25.181Z,5.72
2023-10-06T04:20:03.324Z,5.70
2023-10-06T04:22:46.070Z,5.75
2023-10-06T04:25:22.670Z,5.40
2023-10-06T04:30:45.226Z,5.72
2023-10-06T04:33:24.560Z,5.07
2023-10-06T04:35:57.767Z,4.95
2023-10-06T04:38:37.193Z,4.88
2023-10-06T04:41:10.787Z,5.25
2023-10-06T04:44:04.850Z,4.75
2023-10-06T04:46:34.945Z,5.30
2023-10-06T04:52:01.259Z,4.85
2023-10-06T04:57:19.643Z,5.53
2023-10-06T05:00:30.339Z,5.68
2023-10-06T05:03:02.752Z,5.20
2023-10-06T05:05:57.591Z,5.55
2023-10-06T05:08:28.026Z,5.65
2023-10-06T05:11:06.274Z,6.07
2023-10-06T05:13:41.715Z,5.80
2023-10-06T05:16:21.163Z,5.88
2023-10-06T05:18:54.923Z,6.13
2023-10-06T05:21:32.176Z,5.78
2023-10-06T05:24:10.398Z,5.93
2023-10-06T05:26:52.409Z,5.88
2023-10-06T05:29:28.050Z,6.32
2023-10-06T05:32:06.721Z,6.00
2023-10-06T05:34:49.751Z,5.93
2023-10-06T05:37:26.016Z,5.95
2023-10-06T05:40:00.241Z,6.43
2023-10-06T05:42:35.018Z,5.60
2023-10-06T05:45:39.004Z,5.55
2023-10-06T05:48:18.862Z,7.05
2023-10-06T05:50:56.101Z,7.05
2023-10-06T05:53:43.543Z,6.63
2023-10-06T05:56:22.842Z,6.07
2023-10-06T05:59:01.109Z,5.28
2023-10-06T06:04:23.060Z,5.78
2023-10-06T06:06:59.424Z,5.47
2023-10-06T06:15:05.179Z,6.20
2023-10-06T06:24:01.591Z,6.35
2023-10-06T06:32:21.257Z,6.15
2023-10-06T06:34:51.476Z,6.45
2023-10-06T06:37:32.049Z,5.78
2023-10-06T06:40:02.468Z,6.30
2023-10-06T06:42:39.112Z,6.45
2023-10-06T06:45:08.106Z,6.85
2023-10-06T06:48:00.728Z,8.57
2023-10-06T06:50:35.097Z,6.47
2023-10-06T06:53:14.135Z,7.05
2023-10-06T06:55:47.115Z,7.30
2023-10-06T06:58:25.007Z,7.65
2023-10-06T07:00:55.174Z,7.45
2023-10-06T07:03:31.184Z,8.00
2023-10-06T07:06:01.953Z,7.90
2023-10-06T07:08:40.375Z,6.85
2023-10-06T07:11:19.966Z,8.02
2023-10-06T07:14:04.253Z,7.53
2023-10-06T07:16:34.955Z,7.55
2023-10-06T07:21:49.987Z,7.43
2023-10-06T07:24:46.303Z,7.22
2023-10-06T07:27:21.259Z,7.32
2023-10-06T07:29:56.429Z,6.72
2023-10-06T07:32:31.112Z,6.75
2023-10-06T07:35:04.174Z,6.38
2023-10-06T07:40:31.394Z,5.55
2023-10-06T07:43:11.863Z,5.95
2023-10-06T07:45:48.978Z,5.90
2023-10-06T07:48:32.138Z,5.28
2023-10-06T07:51:27.273Z,4.82
2023-10-06T07:54:01.196Z,5.13
2023-10-06T07:56:37.144Z,4.70
2023-10-06T08:02:12.086Z,5.47
2023-10-06T08:04:50.993Z,5.00
2023-10-06T08:07:30.751Z,4.60
2023-10-06T08:10:13.269Z,5.38
2023-10-06T08:12:44.088Z,4.18
2023-10-06T08:15:32.756Z,4.38
2023-10-06T08:18:22.547Z,4.57
2023-10-06T08:21:03.181Z,3.78
2023-10-06T08:26:37.433Z,4.20
2023-10-06T08:29:21.096Z,4.70
2023-10-06T08:31:52.231Z,4.18
2023-10-06T08:34:30.460Z,4.07
2023-10-06T08:37:15.927Z,4.15
2023-10-06T08:39:55.049Z,4.25
2023-10-06T08:42:33.298Z,4.15
2023-10-06T08:45:05.463Z,4.10
2023-10-06T08:47:59.952Z,4.07
2023-10-06T08:50:39.314Z,4.55
2023-10-06T08:53:25.252Z,4.07
2023-10-06T08:56:10.715Z,4.22
2023-10-06T08:58:52.755Z,4.60
2023-10-06T09:01:30.088Z,3.80
2023-10-06T09:04:16.187Z,4.50
2023-10-06T09:09:57.103Z,5.22
2023-10-06T09:12:34.929Z,4.93
2023-10-06T09:15:34.508Z,4.05
2023-10-06T09:18:14.098Z,4.63
2023-10-06T09:20:49.389Z,4.40
2023-10-06T09:23:48.084Z,4.00
2023-10-06T09:26:34.990Z,4.20
2023-10-06T09:29:20.475Z,4.35
2023-10-06T09:31:55.980Z,4.40
2023-10-06T09:34:33.319Z,4.43
2023-10-06T09:37:22.975Z,4.05
2023-10-06T09:42:55.765Z,4.93
2023-10-06T09:45:44.812Z,4.63
2023-10-06T09:48:19.975Z,4.38
2023-10-06T09:50:59.169Z,4.40
2023-10-06T09:53:37.872Z,3.97
2023-10-06T09:56:36.152Z,4.22
2023-10-06T10:02:35.973Z,4.28
2023-10-06T10:05:08.305Z,3.92
2023-10-06T10:07:55.028Z,3.55
2023-10-06T10:10:29.108Z,3.50
2023-10-06T10:13:43.233Z,4.25
2023-10-06T10:16:18.282Z,3.70
2023-10-06T10:19:07.221Z,3.97
2023-10-06T10:21:57.394Z,4.30
2023-10-06T10:25:11.588Z,3.97
2023-10-06T10:27:55.111Z,3.67
2023-10-06T10:31:08.875Z,4.13
2023-10-06T10:33:54.069Z,3.50
2023-10-06T10:36:31.173Z,3.30
2023-10-06T10:39:25.060Z,3.30
2023-10-06T10:42:02.156Z,3.35
2023-10-06T10:45:08.356Z,3.85
2023-10-06T10:47:41.628Z,3.75
2023-10-06T10:50:25.155Z,3.28
2023-10-06T10:52:55.115Z,3.10
2023-10-06T10:55:35.233Z,3.78
2023-10-06T11:02:13.271Z,3.80
2023-10-06T11:04:45.377Z,3.88
2023-10-06T11:08:04.544Z,3.55
2023-10-06T11:10:52.117Z,3.95
2023-10-06T11:13:23.262Z,4.45
2023-10-06T11:16:04.818Z,4.40
2023-10-06T11:18:39.269Z,4.45
2023-10-06T11:21:41.394Z,3.92
2023-10-06T11:24:14.317Z,4.40
2023-10-06T11:27:09.208Z,3.97
2023-10-06T11:29:42.089Z,4.07
2023-10-06T11:32:19.144Z,3.55
2023-10-06T11:34:50.958Z,4.35
2023-10-06T11:37:38.051Z,4.28
2023-10-06T11:40:18.033Z,3.95
2023-10-06T11:42:52.426Z,4.40
2023-10-06T11:49:18.706Z,4.47
2023-10-06T11:51:53.295Z,3.70
2023-10-06T11:54:32.000Z,4.13
2023-10-06T11:57:24.504Z,4.60
2023-10-06T12:00:14.998Z,4.15
2023-10-06T12:02:51.885Z,3.97
2023-10-06T12:05:34.281Z,4.15
2023-10-06T12:08:26.736Z,3.75
2023-10-06T12:11:14.876Z,3.53
2023-10-06T12:13:50.184Z,4.25
2023-10-06T12:16:30.244Z,4.07
2023-10-06T12:19:16.826Z,4.03
2023-10-06T12:21:49.328Z,3.85
2023-10-06T12:24:23.217Z,3.85
2023-10-06T12:27:03.713Z,3.50
2023-10-06T12:29:49.982Z,3.40
2023-10-06T12:32:25.512Z,3.45
2023-10-06T12:35:02.245Z,3.50
2023-10-06T12:37:35.193Z,3.15
2023-10-06T12:40:12.286Z,2.95
2023-10-06T12:42:58.531Z,3.25
2023-10-06T12:45:30.471Z,3.10
2023-10-06T12:48:17.679Z,3.17
2023-10-06T12:50:55.255Z,3.08
2023-10-06T12:53:32.852Z,2.88
2023-10-06T12:56:05.317Z,3.53
2023-10-06T12:58:39.136Z,3.10
2023-10-06T13:01:12.200Z,3.63
2023-10-06T13:03:49.260Z,3.15
2023-10-06T13:06:17.351Z,2.92
2023-10-06T13:09:01.278Z,3.45
2023-10-06T13:11:33.611Z,3.60
2023-10-06T13:16:58.258Z,3.70
2023-10-06T13:19:32.095Z,3.17
2023-10-06T13:22:00.525Z,3.72
2023-10-06T13:24:36.183Z,3.28
2023-10-06T13:27:10.301Z,3.30
2023-10-06T13:32:40.635Z,3.80
2023-10-06T13:35:29.548Z,3.60
2023-10-06T13:38:01.223Z,4.03
2023-10-06T13:40:44.827Z,3.55
2023-10-06T13:43:19.235Z,3.60
2023-10-06T13:45:53.204Z,3.15
2023-10-06T13:48:24.355Z,3.30
2023-10-06T13:51:00.222Z,2.92
2023-10-06T13:53:30.929Z,3.92
2023-10-06T13:56:14.217Z,3.35
2023-10-06T13:58:44.086Z,3.22
2023-10-06T14:01:20.456Z,3.65
2023-10-06T14:03:52.732Z,3.35
2023-10-06T14:06:36.268Z,3.50
2023-10-06T14:09:13.258Z,3.35
2023-10-06T14:11:42.381Z,3.80
2023-10-06T14:14:45.122Z,3.60
2023-10-06T14:17:18.160Z,3.47
2023-10-06T14:19:55.222Z,3.35
2023-10-06T14:22:26.568Z,3.47
2023-10-06T14:25:03.338Z,3.60
2023-10-06T14:27:42.462Z,3.47
2023-10-06T14:30:25.322Z,3.40
2023-10-06T14:33:20.380Z,4.10
2023-10-06T14:36:21.379Z,3.90
2023-10-06T14:39:14.428Z,4.03
2023-10-06T14:42:06.335Z,4.18
2023-10-06T14:44:59.371Z,4.13
2023-10-06T14:47:34.329Z,4.40
2023-10-06T14:50:12.021Z,3.85
2023-10-06T14:52:49.272Z,4.60
2023-10-06T14:55:30.935Z,4.28
2023-10-06T14:58:03.275Z,4.63
2023-10-06T15:00:40.461Z,4.28
2023-10-06T15:06:06.241Z,6.18
2023-10-06T15:08:37.238Z,4.30
2023-10-06T15:11:14.195Z,4.22
2023-10-06T15:13:59.348Z,4.65
2023-10-06T15:16:40.869Z,3.95
2023-10-06T15:19:24.219Z,4.07
2023-10-06T15:21:56.820Z,4.40
2023-10-06T15:24:37.688Z,3.97
2023-10-06T15:27:24.696Z,4.43
2023-10-06T15:30:04.409Z,3.50
2023-10-06T15:32:43.395Z,4.07
2023-10-06T15:35:19.293Z,3.92
2023-10-06T15:38:02.327Z,3.83
2023-10-06T15:40:49.025Z,3.67
2023-10-06T15:43:24.598Z,3.80
2023-10-06T15:46:08.689Z,4.20
2023-10-06T15:48:40.001Z,4.45
2023-10-06T15:51:20.116Z,3.55
2023-10-06T15:53:58.244Z,4.85
2023-10-06T15:56:39.138Z,5.30
2023-10-06T15:59:16.482Z,5.03
2023-10-06T16:01:54.125Z,3.97
2023-10-06T16:04:35.237Z,3.90
2023-10-06T16:07:17.301Z,4.35
2023-10-06T16:09:51.573Z,4.03
2023-10-06T16:12:27.795Z,4.15
2023-10-06T16:14:59.142Z,3.97
2023-10-06T16:17:39.180Z,3.85
2023-10-06T16:20:08.097Z,4.13
2023-10-06T16:22:49.458Z,4.10
2023-10-06T16:25:25.662Z,4.05
2023-10-06T16:28:10.209Z,4.15
2023-10-06T16:30:44.565Z,4.63
2023-10-06T16:33:26.275Z,3.75
2023-10-06T16:35:59.239Z,4.35
2023-10-06T16:38:34.491Z,4.50
2023-10-06T16:41:04.976Z,4.28
2023-10-06T16:43:54.547Z,4.45
2023-10-06T16:46:21.929Z,4.57
2023-10-06T16:48:58.405Z,4.63
2023-10-06T16:51:34.004Z,4.57
